Time;durP1;ratioP1;P1;durP2;ratioP2;P2;SDS_P1;SDS_P2;PMS_P1;PMS_P2;Temp;Humidity;BMP_temperature;BMP_pressure;BME280_temperature;BME280_humidity;BME280_pressure;Samples;Min_cycle;Max_cycle;Signal;HPM_P1;HPM_P2
2023/03/23 00:01:19;;;;;;;13.18;9.95;;;11.30;99.90;;;;;;5031855;28;20054;-68
2023/03/23 00:03:47;;;;;;;13.98;9.85;;;11.30;99.90;;;;;;5022590;28;20045;-69
2023/03/23 00:06:16;;;;;;;14.45;9.75;;;11.30;99.90;;;;;;5026632;28;20044;-68
2023/03/23 00:08:46;;;;;;;13.68;9.48;;;11.30;99.90;;;;;;5029505;28;20053;-69
2023/03/23 00:11:18;;;;;;;13.27;9.63;;;11.30;99.90;;;;;;5028165;28;20052;-69
2023/03/23 00:13:45;;;;;;;11.82;9.35;;;11.30;99.90;;;;;;5029314;28;20396;-69
2023/03/23 00:16:28;;;;;;;12.35;9.73;;;11.40;99.90;;;;;;5029315;28;20029;-68
2023/03/23 00:19:13;;;;;;;13.68;9.10;;;11.30;99.90;;;;;;5026666;28;20139;-68
2023/03/23 00:21:41;;;;;;;13.65;9.45;;;11.40;99.90;;;;;;5024184;28;20038;-69
2023/03/23 00:24:16;;;;;;;14.25;9.27;;;11.30;99.90;;;;;;5031512;28;20136;-68
2023/03/23 00:26:47;;;;;;;12.48;9.05;;;11.30;99.90;;;;;;5023508;28;20056;-68
2023/03/23 00:29:16;;;;;;;12.50;8.77;;;11.30;99.90;;;;;;5028656;28;20045;-69
2023/03/23 00:31:46;;;;;;;14.05;8.77;;;11.30;99.90;;;;;;5028876;28;20489;-69
2023/03/23 00:34:19;;;;;;;12.48;8.70;;;11.30;99.90;;;;;;5027363;28;20049;-69
2023/03/23 00:36:50;;;;;;;11.65;8.63;;;11.30;99.90;;;;;;5019716;28;20623;-69
2023/03/23 00:39:17;;;;;;;11.88;8.27;;;11.30;99.90;;;;;;5028750;28;20049;-69
2023/03/23 00:41:43;;;;;;;11.57;8.18;;;11.40;99.90;;;;;;5016208;28;20057;-69
2023/03/23 00:44:09;;;;;;;11.75;8.07;;;11.30;99.90;;;;;;5030075;28;20060;-68
2023/03/23 00:46:44;;;;;;;12.10;7.90;;;11.30;99.90;;;;;;5024976;28;20049;-69
2023/03/23 00:49:13;;;;;;;12.27;7.90;;;11.30;99.90;;;;;;5024725;28;20110;-69
2023/03/23 00:51:40;;;;;;;12.27;7.85;;;11.30;99.90;;;;;;5029589;28;20041;-69
2023/03/23 00:54:07;;;;;;;11.80;7.80;;;11.40;99.90;;;;;;5030688;28;20045;-69
2023/03/23 00:56:34;;;;;;;13.13;8.00;;;11.40;99.90;;;;;;5023881;28;20049;-69
2023/03/23 00:58:59;;;;;;;11.80;8.10;;;11.40;99.90;;;;;;5029979;28;20187;-69
2023/03/23 01:01:25;;;;;;;13.95;7.47;;;11.40;99.90;;;;;;5028149;28;20124;-69
2023/03/23 01:03:52;;;;;;;10.80;7.10;;;11.30;99.90;;;;;;5030235;28;20053;-69
2023/03/23 01:06:18;;;;;;;;;;;11.40;99.90;;;;;;5028652;28;20087;-69
2023/03/23 01:08:46;;;;;;;9.07;7.03;;;11.40;99.90;;;;;;5028528;28;19925;-69
2023/03/23 01:11:15;;;;;;;14.40;8.27;;;11.40;99.90;;;;;;5029624;28;20081;-69
2023/03/23 01:13:42;;;;;;;12.18;7.53;;;11.40;99.90;;;;;;5030807;28;20045;-69
2023/03/23 01:16:08;;;;;;;12.55;7.22;;;11.40;99.90;;;;;;5024810;28;20045;-69
2023/03/23 01:18:35;;;;;;;9.70;7.22;;;11.40;99.90;;;;;;5022267;28;20056;-68
2023/03/23 01:21:05;;;;;;;11.50;7.47;;;11.40;99.90;;;;;;5027368;28;20063;-69
2023/03/23 01:23:33;;;;;;;10.45;7.35;;;11.40;99.90;;;;;;5022102;28;20045;-68
2023/03/23 01:26:22;;;;;;;11.48;7.20;;;11.40;99.90;;;;;;5027411;28;20045;-68
2023/03/23 01:28:48;;;;;;;11.98;7.45;;;11.40;99.90;;;;;;5030428;28;20503;-69
2023/03/23 01:31:17;;;;;;;10.20;7.15;;;11.40;99.90;;;;;;5028933;28;20052;-68
2023/03/23 01:33:44;;;;;;;10.73;6.85;;;11.40;99.90;;;;;;5029983;28;20045;-69
2023/03/23 01:36:15;;;;;;;11.73;6.93;;;11.40;99.90;;;;;;5018484;28;20931;-69
2023/03/23 01:38:43;;;;;;;10.70;6.82;;;11.40;99.90;;;;;;5018887;28;20493;-68
2023/03/23 01:41:10;;;;;;;10.95;6.95;;;11.40;99.90;;;;;;5027613;28;20045;-68
2023/03/23 01:43:53;;;;;;;11.10;6.85;;;11.40;99.90;;;;;;5027729;28;20041;-69
2023/03/23 01:46:18;;;;;;;9.43;6.70;;;11.40;99.90;;;;;;5017762;28;20365;-69
2023/03/23 01:48:45;;;;;;;10.65;6.20;;;11.40;99.90;;;;;;5033889;28;20094;-69
2023/03/23 01:51:15;;;;;;;10.37;6.20;;;11.30;99.90;;;;;;5025190;28;20404;-69
2023/03/23 01:53:59;;;;;;;9.25;6.22;;;11.30;99.90;;;;;;5028023;28;20614;-69
2023/03/23 01:56:32;;;;;;;11.15;5.80;;;11.30;99.90;;;;;;5031008;28;20044;-69
2023/03/23 01:58:58;;;;;;;11.70;5.88;;;11.30;99.90;;;;;;5030977;28;20124;-69
2023/03/23 02:01:25;;;;;;;9.35;5.70;;;11.30;99.90;;;;;;5034331;28;20049;-69
2023/03/23 02:03:56;;;;;;;9.97;5.67;;;11.30;99.90;;;;;;5030604;28;20077;-69
2023/03/23 02:06:23;;;;;;;9.20;6.20;;;11.40;99.90;;;;;;5023604;28;20080;-69
2023/03/23 02:08:50;;;;;;;9.00;5.85;;;11.30;99.90;;;;;;5031221;28;20500;-69
2023/03/23 02:11:21;;;;;;;7.82;6.10;;;11.30;99.90;;;;;;5031788;28;20128;-69
2023/03/23 02:13:48;;;;;;;8.35;5.53;;;11.30;99.90;;;;;;5027612;28;20148;-69
2023/03/23 02:16:44;;;;;;;8.52;5.75;;;11.40;99.90;;;;;;5033388;28;20081;-69
2023/03/23 02:19:52;;;;;;;8.07;5.35;;;11.30;99.90;;;;;;5029151;28;20084;-69
2023/03/23 02:22:45;;;;;;;9.50;5.85;;;11.30;99.90;;;;;;5020702;28;20037;-69
2023/03/23 02:25:45;;;;;;;10.13;5.97;;;11.30;99.90;;;;;;5027772;28;20057;-69
2023/03/23 02:28:29;;;;;;;12.25;5.78;;;11.30;99.90;;;;;;5032812;28;20120;-69
2023/03/23 02:31:18;;;;;;;8.05;5.72;;;11.30;99.90;;;;;;5026810;28;20076;-69
2023/03/23 02:34:06;;;;;;;8.13;5.70;;;11.30;99.90;;;;;;5028490;28;20603;-69
2023/03/23 02:36:56;;;;;;;9.27;6.07;;;11.30;99.90;;;;;;5029037;28;20041;-69
2023/03/23 02:39:32;;;;;;;8.93;6.15;;;11.30;99.90;;;;;;5026068;28;20588;-69
2023/03/23 02:42:08;;;;;;;9.73;6.07;;;11.40;99.90;;;;;;5020411;28;20050;-69
2023/03/23 02:44:38;;;;;;;8.18;5.88;;;11.30;99.90;;;;;;5032045;28;20481;-70
2023/03/23 02:47:08;;;;;;;8.32;6.40;;;11.40;99.90;;;;;;5027068;28;20041;-69
2023/03/23 02:49:37;;;;;;;10.38;6.10;;;11.40;99.90;;;;;;5030773;28;20092;-69
2023/03/23 02:52:13;;;;;;;9.68;6.43;;;11.40;99.90;;;;;;5029997;28;20350;-69
2023/03/23 02:54:41;;;;;;;8.18;5.75;;;11.40;99.90;;;;;;5028768;28;20053;-69
2023/03/23 02:57:07;;;;;;;9.50;6.32;;;11.30;99.90;;;;;;5033298;28;20108;-69
2023/03/23 02:59:33;;;;;;;8.43;5.88;;;11.30;99.90;;;;;;5031786;28;20128;-69
2023/03/23 03:02:20;;;;;;;8.77;5.95;;;11.30;99.90;;;;;;5031031;28;20567;-69
2023/03/23 03:04:54;;;;;;;8.60;6.10;;;11.30;99.90;;;;;;5025217;28;20116;-69
2023/03/23 03:07:48;;;;;;;9.25;6.00;;;11.30;99.90;;;;;;5029255;28;20520;-69
2023/03/23 03:10:23;;;;;;;9.02;5.40;;;11.40;99.90;;;;;;5033520;28;20045;-69
2023/03/23 03:13:11;;;;;;;8.73;5.38;;;11.30;99.90;;;;;;5023418;28;20041;-69
2023/03/23 03:15:47;;;;;;;8.40;5.60;;;11.30;99.90;;;;;;5030975;28;20079;-69
2023/03/23 03:18:22;;;;;;;9.30;5.88;;;11.30;99.90;;;;;;5026362;28;20046;-69
2023/03/23 03:20:53;;;;;;;8.18;5.05;;;11.30;99.90;;;;;;5030910;28;20099;-69
2023/03/23 03:23:31;;;;;;;6.38;4.88;;;11.30;99.90;;;;;;5029473;28;20054;-69
2023/03/23 03:25:58;;;;;;;7.80;5.03;;;11.30;99.90;;;;;;5021285;28;20485;-69
2023/03/23 03:28:26;;;;;;;5.95;5.13;;;11.40;99.90;;;;;;5018459;28;20096;-69
2023/03/23 03:31:00;;;;;;;7.55;5.47;;;11.40;99.90;;;;;;5029698;28;20046;-69
2023/03/23 03:33:30;;;;;;;6.70;4.90;;;11.40;99.90;;;;;;5021411;28;20191;-69
2023/03/23 03:35:59;;;;;;;7.45;5.07;;;11.40;99.90;;;;;;5026022;28;20042;-69
2023/03/23 03:38:26;;;;;;;10.25;5.35;;;11.40;99.90;;;;;;5024833;28;20042;-69
2023/03/23 03:40:52;;;;;;;6.60;4.57;;;11.40;99.90;;;;;;5026343;28;20046;-69
2023/03/23 03:43:18;;;;;;;7.07;4.90;;;11.40;99.90;;;;;;5029566;28;20401;-69
2023/03/23 03:45:44;;;;;;;7.70;5.30;;;11.50;99.90;;;;;;5027428;28;20050;-69
2023/03/23 03:48:11;;;;;;;7.70;4.82;;;11.50;99.90;;;;;;5027314;28;20471;-69
2023/03/23 03:50:36;;;;;;;6.17;4.73;;;11.50;99.90;;;;;;5021698;28;20045;-69
2023/03/23 03:53:03;;;;;;;7.60;4.85;;;11.50;99.90;;;;;;5030712;28;20911;-69
2023/03/23 03:55:28;;;;;;;7.95;4.38;;;11.50;99.90;;;;;;5026854;28;20095;-69
2023/03/23 03:57:55;;;;;;;6.65;4.63;;;11.50;99.90;;;;;;5026970;28;20045;-69
2023/03/23 04:00:21;;;;;;;6.70;4.88;;;11.50;99.90;;;;;;5030504;28;20045;-69
2023/03/23 04:02:50;;;;;;;6.65;5.10;;;11.60;99.90;;;;;;5028094;28;20560;-69
2023/03/23 04:05:17;;;;;;;8.75;4.72;;;11.60;99.90;;;;;;5022419;28;20125;-69
2023/03/23 04:07:42;;;;;;;7.72;5.38;;;11.60;99.90;;;;;;5029567;28;20041;-69
2023/03/23 04:10:11;;;;;;;7.70;5.63;;;11.60;99.90;;;;;;5027564;28;20437;-69
2023/03/23 04:12:37;;;;;;;7.28;5.38;;;11.60;99.90;;;;;;5027350;28;23221;-69
2023/03/23 04:15:04;;;;;;;6.35;5.63;;;11.60;99.90;;;;;;5028430;28;20731;-69
2023/03/23 04:17:29;;;;;;;8.32;5.50;;;11.60;99.90;;;;;;5030274;28;20451;-69
2023/03/23 04:20:06;;;;;;;8.55;5.75;;;11.60;99.90;;;;;;5023881;28;20050;-69
2023/03/23 04:22:32;;;;;;;7.57;5.68;;;11.60;99.90;;;;;;5030433;28;20481;-69
2023/03/23 04:25:02;;;;;;;8.77;5.53;;;11.50;99.90;;;;;;5027042;28;20033;-69
2023/03/23 04:27:28;;;;;;;11.10;5.85;;;11.50;99.90;;;;;;5028495;28;20045;-69
2023/03/23 04:29:58;;;;;;;7.97;5.47;;;11.50;99.90;;;;;;5024496;28;20041;-69
2023/03/23 04:32:28;;;;;;;8.70;5.35;;;11.50;99.90;;;;;;5026033;28;20045;-69
2023/03/23 04:34:56;;;;;;;8.38;5.40;;;11.50;99.90;;;;;;5026254;28;20100;-69
2023/03/23 04:37:25;;;;;;;;;;;11.60;99.90;;;;;;5024315;28;20103;-69
2023/03/23 04:39:59;;;;;;;8.45;5.53;;;11.50;99.90;;;;;;5022507;28;19940;-69
2023/03/23 04:42:29;;;;;;;8.55;5.57;;;11.60;99.90;;;;;;5023421;28;20042;-69
2023/03/23 04:44:56;;;;;;;9.70;5.63;;;11.60;99.90;;;;;;5029824;28;20041;-69
2023/03/23 04:47:21;;;;;;;8.60;5.10;;;11.60;99.90;;;;;;5026832;28;20056;-69
2023/03/23 04:49:47;;;;;;;10.30;5.45;;;11.50;99.90;;;;;;5028151;28;20046;-69
2023/03/23 04:52:13;;;;;;;10.43;5.78;;;11.60;99.90;;;;;;5023992;28;20037;-70
2023/03/23 04:54:39;;;;;;;11.18;5.75;;;11.60;99.90;;;;;;5029666;28;20117;-70
2023/03/23 04:57:05;;;;;;;10.25;5.80;;;11.60;99.90;;;;;;5028988;28;20068;-69
2023/03/23 04:59:31;;;;;;;8.52;5.05;;;11.60;99.90;;;;;;5028411;28;20069;-69
2023/03/23 05:01:59;;;;;;;7.88;5.03;;;11.60;99.90;;;;;;5027682;28;20061;-69
2023/03/23 05:04:25;;;;;;;9.80;5.00;;;11.50;99.90;;;;;;5025582;28;20084;-69
2023/03/23 05:06:52;;;;;;;10.25;5.75;;;11.50;99.90;;;;;;5023323;28;20084;-69
2023/03/23 05:09:18;;;;;;;9.07;5.57;;;11.50;99.90;;;;;;5019149;28;20100;-69
2023/03/23 05:11:43;;;;;;;10.27;5.28;;;11.50;99.90;;;;;;5030712;28;20041;-69
2023/03/23 05:14:09;;;;;;;10.07;5.35;;;11.50;99.90;;;;;;5022865;28;20525;-70
2023/03/23 05:16:37;;;;;;;10.07;5.47;;;11.50;99.90;;;;;;5027681;28;20121;-69
2023/03/23 05:19:04;;;;;;;11.38;5.57;;;11.50;99.90;;;;;;5025656;28;20065;-70
2023/03/23 05:21:31;;;;;;;6.72;5.40;;;11.50;99.90;;;;;;5027040;28;20045;-69
2023/03/23 05:24:00;;;;;;;8.70;5.70;;;11.50;99.90;;;;;;5030680;28;20049;-70
2023/03/23 05:26:29;;;;;;;9.38;5.68;;;11.50;99.90;;;;;;5029213;28;20048;-70
2023/03/23 05:28:56;;;;;;;10.63;6.00;;;11.50;99.90;;;;;;5024230;28;20045;-69
2023/03/23 05:31:22;;;;;;;10.93;5.70;;;11.60;99.90;;;;;;5028576;28;20500;-69
2023/03/23 05:33:48;;;;;;;10.40;5.68;;;11.60;99.90;;;;;;5014182;28;20124;-69
2023/03/23 05:36:14;;;;;;;8.23;6.22;;;11.50;99.90;;;;;;5026457;28;20148;-68
2023/03/23 05:38:45;;;;;;;10.07;5.40;;;11.60;99.90;;;;;;5029692;28;20084;-68
2023/03/23 05:41:11;;;;;;;7.60;3.70;;;11.60;99.90;;;;;;5023290;28;20493;-69
2023/03/23 05:43:36;;;;;;;8.45;4.22;;;11.50;99.90;;;;;;5022728;28;20041;-69
2023/03/23 05:46:02;;;;;;;9.43;3.25;;;11.40;99.90;;;;;;5025574;28;20144;-69
2023/03/23 05:48:28;;;;;;;6.72;2.50;;;11.40;99.90;;;;;;5029383;28;20464;-68
2023/03/23 05:50:53;;;;;;;8.75;2.55;;;11.30;99.90;;;;;;5023259;28;20091;-69
2023/03/23 05:53:19;;;;;;;7.70;2.17;;;11.20;99.90;;;;;;5021093;28;20041;-69
2023/03/23 05:55:45;;;;;;;8.93;2.70;;;11.00;99.90;;;;;;5023750;28;20044;-69
2023/03/23 05:58:10;;;;;;;9.27;2.08;;;10.90;99.90;;;;;;5024825;28;20720;-69
2023/03/23 06:00:36;;;;;;;9.35;2.50;;;10.80;99.90;;;;;;5025317;28;20040;-69
2023/03/23 06:03:03;;;;;;;9.88;2.70;;;10.60;99.90;;;;;;5021058;28;20586;-68
2023/03/23 06:05:29;;;;;;;10.65;2.85;;;10.60;99.90;;;;;;5022221;28;20573;-69
2023/03/23 06:07:54;;;;;;;6.93;2.55;;;10.50;99.90;;;;;;5027555;28;20128;-69
2023/03/23 06:10:21;;;;;;;9.30;2.90;;;10.50;99.90;;;;;;5026426;28;20487;-68
2023/03/23 06:12:47;;;;;;;6.22;2.70;;;10.50;99.90;;;;;;5025798;28;20042;-69
2023/03/23 06:15:14;;;;;;;7.70;2.33;;;10.50;99.90;;;;;;5023695;28;20042;-68
2023/03/23 06:17:40;;;;;;;6.50;2.35;;;10.50;99.90;;;;;;5021269;28;20124;-69
2023/03/23 06:20:09;;;;;;;5.80;2.28;;;10.40;99.90;;;;;;5022993;28;20045;-69
2023/03/23 06:22:39;;;;;;;10.98;2.80;;;10.50;99.90;;;;;;5023505;28;20060;-69
2023/03/23 06:25:11;;;;;;;7.32;2.38;;;10.50;99.90;;;;;;5026481;28;20081;-69
2023/03/23 06:27:37;;;;;;;7.03;3.10;;;10.50;99.90;;;;;;5026890;28;20396;-69
2023/03/23 06:30:04;;;;;;;8.63;2.83;;;10.60;99.90;;;;;;5026405;28;20049;-69
2023/03/23 06:32:31;;;;;;;8.52;3.15;;;10.60;99.90;;;;;;5018704;28;20151;-69
2023/03/23 06:34:57;;;;;;;10.63;2.92;;;10.60;99.90;;;;;;5027934;28;20087;-69
2023/03/23 06:37:24;;;;;;;8.77;3.22;;;10.70;99.90;;;;;;5027292;28;20061;-69
2023/03/23 06:39:50;;;;;;;9.88;3.17;;;10.70;99.90;;;;;;5028980;28;20049;-69
2023/03/23 06:42:16;;;;;;;6.35;2.90;;;10.70;99.90;;;;;;5032379;28;20393;-69
2023/03/23 06:44:42;;;;;;;8.93;3.10;;;10.70;99.90;;;;;;5028077;28;20450;-69
2023/03/23 06:47:07;;;;;;;11.75;3.85;;;10.70;99.90;;;;;;5031215;28;20041;-69
2023/03/23 06:49:34;;;;;;;9.98;3.38;;;10.80;99.90;;;;;;5027726;28;20053;-69
2023/03/23 06:52:01;;;;;;;11.70;3.88;;;10.80;99.90;;;;;;5029020;28;20033;-69
2023/03/23 06:54:27;;;;;;;11.05;3.67;;;10.80;99.90;;;;;;5030279;28;20053;-69
2023/03/23 06:56:53;;;;;;;10.25;3.50;;;10.90;99.90;;;;;;5030239;28;20057;-69
2023/03/23 06:59:19;;;;;;;10.73;3.90;;;11.00;99.90;;;;;;5031416;28;20400;-68
2023/03/23 07:01:46;;;;;;;11.30;3.80;;;11.00;99.90;;;;;;5028023;28;20279;-69
2023/03/23 07:04:12;;;;;;;12.35;4.00;;;11.00;99.90;;;;;;5030741;28;20578;-69
2023/03/23 07:06:38;;;;;;;15.50;4.30;;;11.10;99.90;;;;;;5022082;28;20128;-69
2023/03/23 07:09:04;;;;;;;12.77;4.07;;;11.10;99.90;;;;;;5022332;28;20167;-69
2023/03/23 07:11:30;;;;;;;12.43;4.03;;;11.10;99.90;;;;;;5030873;28;20114;-69
2023/03/23 07:13:58;;;;;;;15.50;4.35;;;11.10;99.90;;;;;;5029254;28;20053;-69
2023/03/23 07:16:24;;;;;;;15.15;4.30;;;11.20;99.90;;;;;;5028253;28;20052;-69
2023/03/23 07:18:49;;;;;;;13.20;4.25;;;11.20;99.90;;;;;;5027604;28;20045;-69
2023/03/23 07:21:16;;;;;;;13.05;4.40;;;11.30;99.90;;;;;;5025974;28;20056;-69
2023/03/23 07:23:41;;;;;;;12.65;4.07;;;11.30;99.90;;;;;;5022082;28;20052;-69
2023/03/23 07:26:07;;;;;;;12.52;4.30;;;11.30;99.90;;;;;;5024603;28;20041;-69
2023/03/23 07:28:33;;;;;;;11.27;3.95;;;11.30;99.90;;;;;;5028823;28;20037;-69
2023/03/23 07:30:59;;;;;;;13.90;3.67;;;11.40;99.90;;;;;;5030763;28;20500;-69
2023/03/23 07:33:25;;;;;;;13.05;4.00;;;11.40;99.90;;;;;;5028660;28;20037;-69
2023/03/23 07:35:50;;;;;;;10.32;3.58;;;11.40;99.90;;;;;;5025735;28;20049;-69
2023/03/23 07:38:16;;;;;;;12.48;3.83;;;11.40;99.90;;;;;;5028210;28;20068;-70
2023/03/23 07:40:41;;;;;;;14.10;3.25;;;11.40;99.90;;;;;;5025828;28;20041;-71
2023/03/23 07:43:07;;;;;;;12.20;3.60;;;11.40;99.90;;;;;;5025908;28;20125;-70
2023/03/23 07:45:33;;;;;;;12.55;3.40;;;11.40;99.90;;;;;;5019856;28;20447;-71
2023/03/23 07:47:59;;;;;;;9.80;2.97;;;11.50;99.90;;;;;;5023511;28;20057;-70
2023/03/23 07:50:26;;;;;;;13.52;3.10;;;11.50;99.90;;;;;;5019515;28;20046;-70
2023/03/23 07:52:54;;;;;;;13.13;3.58;;;11.60;99.90;;;;;;5032473;28;20576;-68
2023/03/23 07:55:20;;;;;;;14.45;3.72;;;11.60;99.90;;;;;;5029990;28;20041;-67
2023/03/23 07:57:49;;;;;;;12.73;3.33;;;11.60;99.90;;;;;;5024712;28;20069;-67
2023/03/23 08:00:20;;;;;;;12.43;3.53;;;11.60;99.90;;;;;;5029082;28;20480;-67
2023/03/23 08:02:56;;;;;;;10.52;3.20;;;11.60;99.90;;;;;;5029527;28;20054;-69
2023/03/23 08:05:25;;;;;;;12.63;3.78;;;11.70;99.90;;;;;;5029227;28;20511;-68
2023/03/23 08:07:53;;;;;;;11.80;3.83;;;11.70;99.90;;;;;;5029562;28;20041;-70
2023/03/23 08:10:21;;;;;;;13.80;3.75;;;11.70;99.90;;;;;;5024951;28;20056;-68
2023/03/23 08:12:52;;;;;;;16.45;4.10;;;11.70;99.90;;;;;;5031828;28;20045;-69
2023/03/23 08:15:19;;;;;;;12.02;4.30;;;11.80;99.90;;;;;;5032100;28;20052;-68
2023/03/23 08:17:45;;;;;;;14.93;4.00;;;11.80;99.90;;;;;;5030963;28;20057;-68
2023/03/23 08:20:12;;;;;;;14.02;4.05;;;11.80;99.90;;;;;;5029503;28;20058;-68
2023/03/23 08:22:39;;;;;;;;;;;11.80;99.90;;;;;;5031627;28;20049;-70
2023/03/23 08:25:07;;;;;;;14.80;4.10;;;11.80;99.90;;;;;;5027390;28;19933;-69
2023/03/23 08:27:32;;;;;;;;;;;11.80;99.90;;;;;;5030087;28;20049;-70
2023/03/23 08:29:59;;;;;;;13.20;3.78;;;11.80;99.90;;;;;;5029109;28;19929;-69
2023/03/23 08:32:25;;;;;;;14.82;4.32;;;11.90;99.90;;;;;;5029765;28;20068;-69
2023/03/23 08:34:51;;;;;;;10.38;3.63;;;11.90;99.90;;;;;;5026239;28;20045;-66
2023/03/23 08:37:16;;;;;;;11.02;3.42;;;12.00;99.90;;;;;;5027259;28;20040;-69
2023/03/23 08:39:43;;;;;;;11.45;4.10;;;12.00;99.90;;;;;;5030085;28;20033;-68
2023/03/23 08:42:10;;;;;;;10.60;3.63;;;12.00;99.90;;;;;;5028752;28;21491;-68
2023/03/23 08:44:36;;;;;;;11.60;3.70;;;12.00;99.90;;;;;;5023572;28;20049;-68
2023/03/23 08:47:03;;;;;;;14.23;4.13;;;12.00;99.90;;;;;;5030393;28;20051;-69
2023/03/23 08:49:32;;;;;;;14.40;4.47;;;12.00;99.90;;;;;;5021998;28;20372;-67
2023/03/23 08:51:58;;;;;;;15.48;4.80;;;12.00;99.90;;;;;;5028181;28;20504;-69
2023/03/23 08:54:24;;;;;;;15.77;4.30;;;12.00;99.90;;;;;;5024884;28;20497;-69
2023/03/23 08:56:50;;;;;;;12.80;4.47;;;12.00;99.90;;;;;;5029028;28;20061;-71
2023/03/23 08:59:16;;;;;;;15.73;4.95;;;12.10;99.90;;;;;;5024931;28;20057;-68
2023/03/23 09:01:42;;;;;;;14.52;4.70;;;12.10;99.90;;;;;;5029013;28;20121;-68
2023/03/23 09:04:09;;;;;;;15.50;4.70;;;12.20;99.90;;;;;;5027479;28;20052;-69
2023/03/23 09:06:36;;;;;;;12.75;4.32;;;12.20;99.90;;;;;;5029837;28;20626;-71
2023/03/23 09:09:06;;;;;;;15.27;4.63;;;12.20;99.90;;;;;;5027950;28;20042;-68
2023/03/23 09:11:33;;;;;;;14.07;5.00;;;12.20;99.90;;;;;;5019227;28;20128;-70
2023/03/23 09:13:59;;;;;;;;;;;12.20;99.90;;;;;;5024605;28;20146;-69
2023/03/23 09:16:25;;;;;;;12.98;4.82;;;12.20;99.90;;;;;;5027278;28;19975;-70
2023/03/23 09:18:51;;;;;;;13.00;5.05;;;12.20;99.90;;;;;;5029364;28;20049;-68
2023/03/23 09:21:17;;;;;;;16.30;5.53;;;12.20;99.90;;;;;;5027865;28;20046;-70
2023/03/23 09:23:44;;;;;;;14.70;5.60;;;12.20;99.90;;;;;;5030220;28;20580;-70
2023/03/23 09:26:10;;;;;;;14.67;5.20;;;12.30;99.90;;;;;;5031977;28;20049;-68
2023/03/23 09:28:36;;;;;;;11.88;4.50;;;12.20;99.90;;;;;;5027281;28;20408;-69
2023/03/23 09:31:01;;;;;;;12.20;4.45;;;12.20;99.90;;;;;;5025115;28;20048;-70
2023/03/23 09:33:33;;;;;;;10.55;4.10;;;12.10;99.90;;;;;;5028177;28;20048;-70
2023/03/23 09:35:59;;;;;;;10.80;4.13;;;12.10;99.90;;;;;;5028614;28;20476;-68
2023/03/23 09:38:25;;;;;;;11.77;3.65;;;12.10;99.90;;;;;;5028660;28;20226;-68
2023/03/23 09:40:50;;;;;;;12.60;4.03;;;12.20;99.90;;;;;;5028312;28;20497;-69
2023/03/23 09:43:53;;;;;;;9.52;3.80;;;12.20;99.90;;;;;;5026162;28;20570;-68
2023/03/23 09:46:46;;;;;;;10.38;3.47;;;12.20;99.90;;;;;;5026745;28;20061;-70
2023/03/23 09:49:21;;;;;;;11.32;4.38;;;12.20;99.90;;;;;;5028280;28;20389;-69
2023/03/23 09:51:59;;;;;;;10.93;3.72;;;12.20;99.90;;;;;;5023564;28;20046;-68
2023/03/23 09:54:46;;;;;;;10.75;3.80;;;12.30;99.90;;;;;;5020229;28;20034;-69
2023/03/23 09:57:16;;;;;;;;;;;12.40;99.90;;;;;;5026975;28;20041;-70
2023/03/23 10:00:04;;;;;;;10.50;3.25;;;12.50;99.90;;;;;;5019567;28;19925;-72
2023/03/23 10:02:39;;;;;;;11.73;3.65;;;12.50;99.90;;;;;;5025881;28;20061;-73
2023/03/23 10:05:32;;;;;;;11.63;3.50;;;12.60;99.90;;;;;;5030827;28;20362;-73
2023/03/23 10:07:59;;;;;;;13.02;3.25;;;12.50;99.90;;;;;;5027959;28;20064;-72
2023/03/23 10:10:55;;;;;;;7.80;3.00;;;12.50;99.90;;;;;;5032991;28;20396;-70
2023/03/23 10:13:51;;;;;;;11.67;3.47;;;12.60;99.90;;;;;;5031597;28;20061;-73
2023/03/23 10:16:28;;;;;;;10.60;4.03;;;12.70;99.90;;;;;;5031614;28;20053;-70
2023/03/23 10:19:09;;;;;;;9.45;3.63;;;12.90;99.90;;;;;;5030295;28;20064;-70
2023/03/23 10:21:38;;;;;;;11.05;3.58;;;13.00;99.90;;;;;;5033957;28;20049;-70
2023/03/23 10:24:09;;;;;;;10.48;3.60;;;13.10;99.90;;;;;;5030001;28;20041;-71
2023/03/23 10:26:48;;;;;;;9.27;3.25;;;13.10;99.90;;;;;;5032802;28;20128;-70
2023/03/23 10:29:26;;;;;;;11.73;3.85;;;13.10;99.90;;;;;;5034184;28;20045;-70
2023/03/23 10:32:08;;;;;;;11.18;3.47;;;13.10;99.90;;;;;;5032699;28;20045;-71
2023/03/23 10:34:55;;;;;;;11.32;3.70;;;13.10;99.90;;;;;;5033683;28;20044;-71
2023/03/23 10:37:29;;;;;;;13.45;3.58;;;13.10;99.90;;;;;;5034113;28;20053;-71
2023/03/23 10:40:00;;;;;;;10.10;3.92;;;13.10;99.90;;;;;;5029781;28;20046;-70
2023/03/23 10:42:44;;;;;;;9.18;3.47;;;13.20;99.90;;;;;;5031863;28;20041;-70
2023/03/23 10:45:29;;;;;;;8.55;3.13;;;13.30;99.90;;;;;;5030990;28;20128;-70
2023/03/23 10:48:12;;;;;;;9.63;3.05;;;13.30;99.90;;;;;;5025198;28;20057;-71
2023/03/23 10:50:38;;;;;;;9.77;3.10;;;13.30;99.90;;;;;;5033699;28;20061;-70
2023/03/23 10:53:17;;;;;;;9.77;3.33;;;13.30;99.90;;;;;;5031723;28;20392;-71
2023/03/23 10:55:44;;;;;;;10.60;3.40;;;13.40;99.90;;;;;;5032054;28;20030;-71
2023/03/23 10:58:21;;;;;;;8.50;2.97;;;13.50;99.90;;;;;;5032339;28;20041;-71
2023/03/23 11:00:47;;;;;;;10.00;3.47;;;13.70;99.90;;;;;;5030235;28;20049;-70
2023/03/23 11:03:38;;;;;;;7.20;2.83;;;13.70;99.90;;;;;;5033434;28;20053;-71
2023/03/23 11:06:18;;;;;;;8.43;3.05;;;13.60;99.90;;;;;;5031333;28;20050;-70
2023/03/23 11:09:00;;;;;;;10.50;2.90;;;13.60;99.90;;;;;;5032503;28;20436;-71
2023/03/23 11:11:32;;;;;;;8.15;3.20;;;13.60;99.90;;;;;;5033632;28;20152;-71
2023/03/23 11:14:01;;;;;;;8.57;3.13;;;13.70;99.90;;;;;;5032518;28;20049;-70
2023/03/23 11:16:32;;;;;;;8.73;2.90;;;13.80;99.90;;;;;;5028591;28;20448;-70
2023/03/23 11:19:14;;;;;;;9.65;3.35;;;13.90;99.90;;;;;;5021695;28;20037;-69
2023/03/23 11:21:45;;;;;;;9.90;3.10;;;14.00;99.90;;;;;;5031961;28;20049;-68
2023/03/23 11:24:12;;;;;;;13.07;3.28;;;14.00;99.90;;;;;;5029699;28;20057;-69
2023/03/23 11:26:48;;;;;;;9.85;3.30;;;14.10;99.90;;;;;;5016669;28;20038;-69
2023/03/23 11:29:24;;;;;;;9.10;3.08;;;14.00;99.90;;;;;;5028315;28;20447;-67
2023/03/23 11:31:53;;;;;;;11.70;3.42;;;13.90;99.90;;;;;;5023392;28;20305;-70
2023/03/23 11:34:26;;;;;;;10.63;3.08;;;13.70;99.90;;;;;;5025613;28;20132;-67
2023/03/23 11:36:55;;;;;;;10.63;3.67;;;13.60;99.90;;;;;;5031439;28;20045;-71
2023/03/23 11:39:30;;;;;;;10.48;2.95;;;13.50;99.90;;;;;;5031650;28;20064;-68
2023/03/23 11:42:11;;;;;;;9.48;3.20;;;13.40;99.90;;;;;;5024827;28;20489;-69
2023/03/23 11:44:44;;;;;;;9.73;2.92;;;13.30;99.90;;;;;;5029236;28;20152;-69
2023/03/23 11:47:24;;;;;;;11.95;3.38;;;13.30;99.90;;;;;;5026978;28;20049;-70
2023/03/23 11:50:14;;;;;;;11.32;3.75;;;13.20;99.90;;;;;;5025397;28;20120;-67
2023/03/23 11:52:52;;;;;;;9.63;3.63;;;13.20;99.90;;;;;;5024765;28;20195;-70
2023/03/23 11:55:25;;;;;;;11.23;3.55;;;13.10;99.90;;;;;;5022796;28;20057;-72
2023/03/23 11:57:52;;;;;;;9.95;3.65;;;13.20;99.90;;;;;;5026757;28;20049;-72
2023/03/23 12:00:22;;;;;;;9.25;3.17;;;13.20;99.90;;;;;;5029720;28;20057;-72
2023/03/23 12:02:58;;;;;;;10.57;3.10;;;13.20;99.90;;;;;;5028735;28;20093;-73
2023/03/23 12:05:33;;;;;;;9.02;3.55;;;13.30;99.90;;;;;;5029072;28;20037;-71
2023/03/23 12:08:19;;;;;;;12.30;3.33;;;13.20;99.90;;;;;;5038126;28;20512;-74
2023/03/23 12:11:12;;;;;;;12.05;3.63;;;13.10;99.90;;;;;;5028804;28;20116;-73
2023/03/23 12:14:02;;;;;;;14.35;3.70;;;13.00;99.90;;;;;;5028964;28;20175;-71
2023/03/23 12:16:44;;;;;;;13.27;3.38;;;13.00;99.90;;;;;;5029323;28;20037;-67
2023/03/23 12:19:22;;;;;;;10.80;3.67;;;13.00;99.90;;;;;;5030609;28;20627;-68
2023/03/23 12:22:09;;;;;;;11.60;3.65;;;13.00;99.90;;;;;;5024035;28;20168;-69
2023/03/23 12:24:41;;;;;;;10.35;2.88;;;13.00;99.90;;;;;;5028976;28;20049;-67
2023/03/23 12:27:33;;;;;;;16.17;3.85;;;13.00;99.90;;;;;;5030185;28;20048;-67
2023/03/23 12:30:08;;;;;;;10.55;3.00;;;13.10;99.90;;;;;;5031526;28;20098;-68
2023/03/23 12:32:52;;;;;;;11.50;3.63;;;13.10;99.90;;;;;;5030024;28;20148;-68
2023/03/23 12:35:27;;;;;;;13.90;3.60;;;13.20;99.90;;;;;;5019794;28;20053;-68
2023/03/23 12:38:00;;;;;;;10.32;2.92;;;13.20;99.90;;;;;;5030240;28;20133;-69
2023/03/23 12:40:46;;;;;;;11.88;2.60;;;13.20;99.90;;;;;;5017832;28;20049;-69
2023/03/23 12:43:34;;;;;;;10.35;2.70;;;13.30;99.90;;;;;;5028718;28;20060;-69
2023/03/23 12:46:19;;;;;;;10.88;2.95;;;13.40;99.90;;;;;;5034899;28;20104;-69
2023/03/23 12:49:01;;;;;;;11.73;3.05;;;13.50;99.90;;;;;;5027754;28;20506;-69
2023/03/23 12:51:42;;;;;;;10.18;2.92;;;13.60;99.90;;;;;;5030271;28;20354;-69
2023/03/23 12:54:28;;;;;;;10.38;2.50;;;13.80;99.90;;;;;;5030870;28;20041;-70
2023/03/23 12:57:01;;;;;;;11.85;2.60;;;13.90;99.90;;;;;;5028383;28;20124;-69
2023/03/23 12:59:41;;;;;;;12.25;2.55;;;14.00;99.90;;;;;;5028941;28;20037;-69
2023/03/23 13:02:28;;;;;;;10.93;2.30;;;14.10;99.90;;;;;;5030722;28;20053;-69
2023/03/23 13:05:11;;;;;;;11.10;2.58;;;14.10;99.90;;;;;;5020004;28;20133;-69